createdAt,value
2017-11-01T00:02:19.678Z,88.89
2017-11-01T00:04:48.415Z,89.01
2017-11-01T00:07:17.062Z,89.08
2017-11-01T00:09:45.702Z,89.01
2017-11-01T00:12:14.390Z,88.95
2017-11-01T00:14:43.066Z,89.10
2017-11-01T00:17:12.662Z,89.26
2017-11-01T00:19:41.298Z,89.21
2017-11-01T00:22:10.002Z,89.14
2017-11-01T00:24:38.822Z,89.32
2017-11-01T00:27:10.818Z,89.17
2017-11-01T00:29:39.509Z,89.16
2017-11-01T00:32:08.149Z,89.22
2017-11-01T00:34:36.857Z,89.31
2017-11-01T00:37:10.494Z,89.32
2017-11-01T00:39:39.214Z,89.28
2017-11-01T00:42:07.907Z,89.39
2017-11-01T00:44:36.594Z,89.32
2017-11-01T00:47:09.080Z,89.24
2017-11-01T00:49:37.735Z,89.34
2017-11-01T00:52:06.439Z,89.25
2017-11-01T00:54:35.096Z,89.55
2017-11-01T00:57:08.101Z,89.55
2017-11-01T00:59:36.733Z,89.46
2017-11-01T01:02:05.413Z,89.64
2017-11-01T01:04:34.136Z,89.45
2017-11-01T01:07:07.630Z,89.54
2017-11-01T01:09:36.340Z,89.44
2017-11-01T01:12:05.004Z,89.64
2017-11-01T01:14:33.688Z,89.69
2017-11-01T01:17:13.088Z,89.85
2017-11-01T01:19:47.200Z,89.59
2017-11-01T01:22:26.422Z,89.76
2017-11-01T01:25:07.739Z,89.63
2017-11-01T01:27:43.644Z,89.81
2017-11-01T01:30:14.823Z,89.90
2017-11-01T01:32:46.243Z,89.70
2017-11-01T01:35:17.066Z,89.57
2017-11-01T01:37:47.910Z,89.74
2017-11-01T01:40:18.713Z,89.72
2017-11-01T01:42:50.336Z,89.51
2017-11-01T01:45:21.224Z,89.63
2017-11-01T01:47:51.827Z,89.75
2017-11-01T01:50:20.886Z,89.81
2017-11-01T01:52:49.587Z,89.85
2017-11-01T01:55:18.271Z,89.73
2017-11-01T01:57:46.997Z,89.58
2017-11-01T02:00:15.752Z,90.04
2017-11-01T02:02:44.127Z,89.87
2017-11-01T02:05:12.830Z,89.76
2017-11-01T02:07:41.588Z,89.87
2017-11-01T02:10:10.324Z,90.12
2017-11-01T02:12:38.994Z,90.06
2017-11-01T02:15:07.739Z,90.08
2017-11-01T02:17:36.263Z,89.93
2017-11-01T02:20:04.669Z,89.94
2017-11-01T02:22:33.052Z,90.23
2017-11-01T02:25:01.408Z,90.50
2017-11-01T02:27:29.899Z,90.27
2017-11-01T02:29:58.391Z,90.09
2017-11-01T02:32:27.074Z,90.14
2017-11-01T02:34:55.468Z,90.10
2017-11-01T02:37:24.195Z,90.05
2017-11-01T02:39:52.931Z,90.26
2017-11-01T02:42:21.638Z,89.98
2017-11-01T02:44:50.408Z,90.13
2017-11-01T02:47:18.827Z,90.07
2017-11-01T02:49:47.605Z,90.17
2017-11-01T02:52:16.005Z,90.32
2017-11-01T02:54:44.415Z,90.25
2017-11-01T02:57:13.165Z,90.19
2017-11-01T02:59:41.513Z,90.19
2017-11-01T03:02:10.539Z,90.01
2017-11-01T03:04:39.238Z,90.33
2017-11-01T03:07:10.403Z,90.16
2017-11-01T03:09:39.135Z,90.27
2017-11-01T03:12:07.814Z,90.06
2017-11-01T03:14:36.480Z,90.21
2017-11-01T03:17:08.367Z,90.25
2017-11-01T03:19:36.856Z,90.16
2017-11-01T03:22:05.258Z,90.07
2017-11-01T03:24:33.657Z,90.03
2017-11-01T03:27:04.622Z,90.16
2017-11-01T03:29:33.300Z,90.26
2017-11-01T03:32:01.995Z,90.19
2017-11-01T03:34:30.349Z,90.11
2017-11-01T03:36:59.074Z,90.15
2017-11-01T03:39:27.838Z,89.92
2017-11-01T03:41:56.257Z,90.10
2017-11-01T03:44:24.621Z,90.39
2017-11-01T03:46:53.431Z,90.68
2017-11-01T03:49:21.782Z,90.43
2017-11-01T03:51:50.391Z,90.33
2017-11-01T03:54:18.833Z,90.16
2017-11-01T03:56:47.191Z,90.30
2017-11-01T03:59:15.886Z,90.54
2017-11-01T04:01:44.301Z,90.34
2017-11-01T04:04:12.678Z,90.12
2017-11-01T04:06:41.093Z,90.61
2017-11-01T04:09:09.445Z,90.57
2017-11-01T04:11:38.389Z,90.60
2017-11-01T04:14:07.130Z,90.77
2017-11-01T04:16:35.843Z,90.86
2017-11-01T04:19:10.380Z,90.70
2017-11-01T04:21:38.735Z,90.91
2017-11-01T04:24:07.415Z,90.56
2017-11-01T04:26:36.101Z,90.56
2017-11-01T04:29:04.791Z,90.87
2017-11-01T04:31:33.191Z,90.72
2017-11-01T04:34:01.855Z,90.73
2017-11-01T04:36:30.426Z,90.56
2017-11-01T04:38:59.110Z,90.72
2017-11-01T04:41:27.810Z,90.88
2017-11-01T04:43:56.602Z,90.94
2017-11-01T04:46:24.958Z,91.10
2017-11-01T04:48:56.173Z,91.26
2017-11-01T04:51:24.812Z,91.09
2017-11-01T04:53:54.823Z,91.04
2017-11-01T04:56:25.359Z,91.01
2017-11-01T04:58:53.540Z,91.30
2017-11-01T05:01:22.226Z,91.24
2017-11-01T05:03:50.637Z,91.33
2017-11-01T05:06:20.309Z,91.29
2017-11-01T05:08:50.189Z,91.64
2017-11-01T05:11:19.287Z,91.15
2017-11-01T05:13:53.422Z,91.21
2017-11-01T05:16:22.184Z,91.18
2017-11-01T05:18:51.873Z,91.39
2017-11-01T05:21:22.319Z,91.05
2017-11-01T05:23:52.855Z,90.84
2017-11-01T05:26:21.591Z,90.64
2017-11-01T05:28:51.710Z,91.18
2017-11-01T05:31:23.139Z,91.47
2017-11-01T05:33:52.486Z,91.08
2017-11-01T05:36:25.242Z,90.99
2017-11-01T05:38:58.224Z,91.17
2017-11-01T05:41:28.971Z,91.16
2017-11-01T05:43:59.104Z,91.14
2017-11-01T05:46:28.280Z,91.18
2017-11-01T05:48:57.058Z,91.32
2017-11-01T05:51:25.422Z,91.16
2017-11-01T05:53:54.411Z,91.11
2017-11-01T05:56:23.530Z,90.60
2017-11-01T05:58:51.959Z,90.74
2017-11-01T06:01:20.341Z,91.10
2017-11-01T06:03:48.739Z,91.17
2017-11-01T06:06:17.451Z,91.04
2017-11-01T06:08:45.874Z,91.24
2017-11-01T06:11:14.898Z,91.51
2017-11-01T06:13:43.657Z,91.62
2017-11-01T06:16:12.003Z,91.40
2017-11-01T06:18:40.763Z,91.54
2017-11-01T06:21:09.822Z,91.06
2017-11-01T06:23:38.504Z,91.32
2017-11-01T06:26:10.701Z,91.36
2017-11-01T06:28:39.568Z,91.49
2017-11-01T06:31:10.046Z,91.58
2017-11-01T06:33:38.467Z,91.54
2017-11-01T06:36:07.286Z,91.26
2017-11-01T06:38:35.644Z,91.46
2017-11-01T06:41:04.416Z,91.44
2017-11-01T06:43:33.106Z,91.66
2017-11-01T06:46:01.795Z,91.54
2017-11-01T06:48:30.206Z,91.69
2017-11-01T06:50:58.605Z,91.68
2017-11-01T06:53:26.971Z,91.28
2017-11-01T06:55:55.669Z,91.61
2017-11-01T06:58:24.362Z,91.59
2017-11-01T07:00:56.015Z,91.64
2017-11-01T07:03:27.367Z,91.62
2017-11-01T07:05:56.061Z,91.62
2017-11-01T07:08:27.735Z,92.02
2017-11-01T07:11:05.137Z,91.75
2017-11-01T07:13:47.241Z,91.61
2017-11-01T07:16:26.406Z,91.82
2017-11-01T07:19:08.327Z,91.18
2017-11-01T07:21:47.244Z,91.94
2017-11-01T07:24:27.294Z,91.68
2017-11-01T07:27:12.964Z,91.91
2017-11-01T07:29:50.612Z,91.90
2017-11-01T07:32:25.783Z,91.96
2017-11-01T07:35:07.653Z,92.09
2017-11-01T07:37:37.490Z,91.76
2017-11-01T07:40:18.514Z,91.80
2017-11-01T07:43:01.790Z,91.62
2017-11-01T07:45:42.904Z,91.84
2017-11-01T07:48:21.002Z,91.62
2017-11-01T07:50:59.694Z,92.05
2017-11-01T07:53:28.974Z,91.97
2017-11-01T07:55:57.668Z,91.89
2017-11-01T07:58:39.659Z,91.91
2017-11-01T08:01:18.056Z,91.60
2017-11-01T08:03:55.714Z,91.57
2017-11-01T08:06:39.996Z,91.27
2017-11-01T08:09:22.475Z,91.57
2017-11-01T08:12:05.755Z,91.58
2017-11-01T08:14:48.325Z,91.63
2017-11-01T08:17:31.115Z,91.37
2017-11-01T08:20:11.690Z,91.71
2017-11-01T08:22:53.607Z,92.00
2017-11-01T08:25:39.496Z,91.88
2017-11-01T08:28:24.427Z,91.78
2017-11-01T08:31:07.462Z,91.64
2017-11-01T08:33:52.604Z,91.89
2017-11-01T08:36:22.467Z,92.11
2017-11-01T08:38:52.055Z,91.91
2017-11-01T08:41:23.573Z,91.80
2017-11-01T08:44:05.631Z,91.45
2017-11-01T08:46:48.906Z,92.18
2017-11-01T08:49:33.444Z,91.98
2017-11-01T08:52:17.413Z,91.68
2017-11-01T08:55:00.301Z,92.11
2017-11-01T08:57:42.390Z,91.69
2017-11-01T09:00:18.227Z,91.84
2017-11-01T09:02:55.851Z,91.73
2017-11-01T09:05:38.514Z,92.06
2017-11-01T09:08:15.533Z,92.39
2017-11-01T09:10:54.811Z,91.87
2017-11-01T09:13:33.580Z,92.00
2017-11-01T09:16:15.215Z,92.07
2017-11-01T09:18:56.314Z,92.21
2017-11-01T09:21:38.415Z,91.91
2017-11-01T09:24:19.138Z,91.81
2017-11-01T09:27:00.686Z,91.93
2017-11-01T09:29:42.795Z,92.17
2017-11-01T09:32:18.746Z,92.04
2017-11-01T09:34:55.696Z,92.24
2017-11-01T09:37:35.447Z,91.83
2017-11-01T09:40:13.774Z,92.05
2017-11-01T09:42:54.773Z,91.90
2017-11-01T09:45:24.221Z,92.12
2017-11-01T09:48:04.890Z,92.12
2017-11-01T09:50:34.453Z,91.99
2017-11-01T09:53:09.138Z,91.91
2017-11-01T09:55:52.030Z,92.04
2017-11-01T09:58:33.506Z,92.16
2017-11-01T10:01:19.099Z,92.06
2017-11-01T10:04:01.463Z,91.51
2017-11-01T10:06:44.341Z,91.84
2017-11-01T10:09:27.389Z,91.64
2017-11-01T10:12:06.139Z,91.96
2017-11-01T10:14:46.325Z,92.02
2017-11-01T10:17:33.810Z,91.83
2017-11-01T10:20:15.557Z,92.04
2017-11-01T10:22:45.261Z,92.10
2017-11-01T10:25:22.659Z,92.18
2017-11-01T10:28:01.843Z,92.22
2017-11-01T10:30:45.682Z,91.93
2017-11-01T10:33:30.732Z,91.98
2017-11-01T10:36:13.642Z,92.18
2017-11-01T10:38:43.025Z,92.16
2017-11-01T10:41:24.765Z,92.18
2017-11-01T10:44:07.066Z,92.12
2017-11-01T10:46:46.692Z,92.01
2017-11-01T10:49:27.267Z,92.18
2017-11-01T10:52:08.866Z,92.30
2017-11-01T10:54:50.075Z,92.21
2017-11-01T10:57:32.067Z,92.28
2017-11-01T11:00:13.917Z,91.76
2017-11-01T11:02:58.054Z,92.04
2017-11-01T11:05:41.702Z,92.45
2017-11-01T11:08:24.795Z,92.47
2017-11-01T11:10:55.885Z,92.33
2017-11-01T11:13:26.826Z,92.39
2017-11-01T11:15:56.542Z,92.41
2017-11-01T11:18:26.308Z,92.31
2017-11-01T11:20:56.248Z,92.11
2017-11-01T11:23:25.113Z,92.03
2017-11-01T11:26:11.445Z,92.08
2017-11-01T11:28:49.025Z,92.25
2017-11-01T11:31:28.642Z,92.02
2017-11-01T11:34:15.197Z,92.02
2017-11-01T11:36:44.968Z,92.03
2017-11-01T11:39:13.629Z,91.79
2017-11-01T11:41:42.368Z,91.93
2017-11-01T11:44:15.327Z,91.79
2017-11-01T11:46:44.022Z,92.12
2017-11-01T11:49:14.882Z,91.76
2017-11-01T11:51:43.601Z,91.77
2017-11-01T11:54:12.340Z,91.61
2017-11-01T11:56:41.110Z,91.92
2017-11-01T11:59:09.835Z,92.03
2017-11-01T12:01:38.617Z,91.88
2017-11-01T12:04:07.337Z,92.01
2017-11-01T12:06:41.098Z,91.94
2017-11-01T12:09:19.141Z,92.00
2017-11-01T12:12:02.347Z,92.16
2017-11-01T12:14:45.095Z,92.25
2017-11-01T12:17:25.749Z,92.21
2017-11-01T12:20:06.043Z,92.24
2017-11-01T12:22:48.662Z,92.26
2017-11-01T12:25:31.088Z,92.05
2017-11-01T12:28:14.284Z,92.19
2017-11-01T12:30:59.065Z,91.89
2017-11-01T12:33:44.016Z,92.14
2017-11-01T12:36:30.213Z,92.03
2017-11-01T12:39:13.501Z,92.29
2017-11-01T12:41:59.023Z,92.19
2017-11-01T12:44:37.739Z,92.20
2017-11-01T12:47:09.109Z,92.22
2017-11-01T12:49:53.802Z,91.86
2017-11-01T12:52:37.162Z,91.88
2017-11-01T12:55:19.579Z,92.07
2017-11-01T12:58:02.421Z,91.84
2017-11-01T13:00:47.587Z,91.70
2017-11-01T13:03:28.229Z,91.79
2017-11-01T13:06:04.333Z,91.73
2017-11-01T13:08:40.892Z,91.84
2017-11-01T13:11:24.455Z,92.04
2017-11-01T13:14:02.524Z,92.01
2017-11-01T13:16:46.324Z,92.13
2017-11-01T13:19:22.741Z,92.05
2017-11-01T13:22:05.128Z,92.17
2017-11-01T13:24:42.504Z,91.78
2017-11-01T13:27:23.548Z,91.94
2017-11-01T13:29:57.848Z,92.02
2017-11-01T13:32:35.656Z,91.99
2017-11-01T13:35:18.952Z,91.79
2017-11-01T13:37:58.270Z,91.97
2017-11-01T13:40:37.654Z,91.80
2017-11-01T13:43:19.948Z,91.96
2017-11-01T13:46:00.795Z,91.58
2017-11-01T13:48:41.520Z,91.89
2017-11-01T13:51:21.517Z,91.99
2017-11-01T13:54:00.836Z,91.81
2017-11-01T13:56:37.863Z,91.78
2017-11-01T13:59:16.707Z,91.70
2017-11-01T14:02:01.069Z,91.82
2017-11-01T14:04:39.160Z,91.97
2017-11-01T14:07:22.755Z,91.94
2017-11-01T14:09:51.975Z,92.07
2017-11-01T14:12:20.676Z,91.96
2017-11-01T14:14:49.322Z,92.01
2017-11-01T14:17:18.013Z,92.11
2017-11-01T14:19:46.823Z,92.04
2017-11-01T14:22:15.522Z,92.09
2017-11-01T14:24:44.164Z,92.03
2017-11-01T14:27:12.879Z,91.87
2017-11-01T14:29:41.556Z,91.97
2017-11-01T14:32:10.230Z,91.83
2017-11-01T14:34:38.940Z,91.93
2017-11-01T14:37:17.343Z,92.16
2017-11-01T14:39:46.054Z,92.02
